Weather History for Mount Vernon, IL

Change the Weather History Date:

Thursday, January 16, 2014

  Actual Average Record
Temperature  
Mean Temperature 32 °F -  
Max Temperature 44 °F 36 °F 60 °F (2006)
Min Temperature 21 °F 21 °F -2 °F (2009)
Degree Days  
Heating Degree Days 32    
Moisture  
Dew Point 25 °F    
Average Humidity 72    
Maximum Humidity 93    
Minimum Humidity 49    
Precipitation  
Precipitation 0.00 in - - ()
Sea Level Pressure  
Sea Level Pressure 29.83 in    
Wind  
Wind Speed 11 mph (SW)    
Max Wind Speed 18 mph    
Max Gust Speed 28 mph    
Visibility 10 miles    
Events      
Averages and records for this station are not official NWS values.
T = Trace of Precipitation, MM = Missing Value Source: NWS Daily Summary

Daily Weather History Graph

Daily Weather History Graph

Search for Another Location

Airport:

Trip Planner

Search our weather history database for the weather conditions in past years. The results will help you decide how hot, cold, wet, or windy it might be!

Date:

Astronomy

Jan. 16, 2014 Rise Set
Actual Time 7:10 AM CST 5:00 PM CST
Civil Twilight 6:41 AM CST 5:29 PM CST
Nautical Twilight 6:09 AM CST 6:01 PM CST
Astronomical Twilight 5:37 AM CST 6:33 PM CST
Moon 5:50 PM CST (1/16) 7:05 AM CST (1/16)
Length of Visible Light 10h 47m
Length of Day
9h 49m
Full, 100% of the Moon is Illuminated
Jan 16
Full
Jan 23
Last Quarter
Jan 30
New
Feb 6
First Quarter
Feb 14
Full

Hourly Weather History & Observations

Time (CST) Temp. Windchill Dew Point Humidity Pressure Visibility Wind Dir Wind Speed Gust Speed Precip Events Conditions
12:15 AM 21.2 °F 14.9 °F 17.6 °F 86% 30.03 in 10.0 mi South 4.6 mph - N/A   Mostly Cloudy
12:35 AM 24.8 °F 16.1 °F 15.8 °F 69% 30.00 in 10.0 mi South 8.1 mph - N/A   Overcast
12:55 AM 24.8 °F 16.1 °F 17.6 °F 74% 29.99 in 10.0 mi South 8.1 mph - N/A   Overcast
1:15 AM 24.8 °F 15.3 °F 17.6 °F 74% 29.98 in 10.0 mi South 9.2 mph - N/A   Overcast
1:35 AM 26.6 °F 16.8 °F 17.6 °F 69% 29.98 in 10.0 mi South 10.4 mph - N/A   Overcast
1:55 AM 26.6 °F 17.5 °F 17.6 °F 69% 29.98 in 10.0 mi SSW 9.2 mph - N/A   Overcast
2:15 AM 26.6 °F 18.2 °F 17.6 °F 69% 29.97 in 10.0 mi South 8.1 mph - N/A   Overcast
2:35 AM 26.6 °F 14.3 °F 17.6 °F 69% 29.96 in 10.0 mi SSW 16.1 mph 20.7 mph N/A   Overcast
2:55 AM 26.6 °F 14.7 °F 17.6 °F 69% 29.96 in 10.0 mi SSW 15.0 mph - N/A   Overcast
3:15 AM 26.6 °F 14.7 °F 19.4 °F 74% 29.95 in 10.0 mi SSW 15.0 mph - N/A   Overcast
3:35 AM 26.6 °F 15.7 °F 17.6 °F 69% 29.94 in 10.0 mi SSW 12.7 mph - N/A   Overcast
3:55 AM 28.4 °F 17.5 °F 17.6 °F 64% 29.92 in 10.0 mi South 13.8 mph - N/A   Overcast
4:15 AM 28.4 °F 17.5 °F 17.6 °F 64% 29.90 in 10.0 mi South 13.8 mph - N/A   Overcast
4:35 AM 28.4 °F 18.5 °F 17.6 °F 64% 29.89 in 10.0 mi South 11.5 mph - N/A   Overcast
4:55 AM 28.4 °F 17.0 °F 17.6 °F 64% 29.88 in 10.0 mi South 15.0 mph - N/A   Overcast
5:15 AM 28.4 °F 17.5 °F 17.6 °F 64% 29.88 in 10.0 mi SSW 13.8 mph - N/A   Mostly Cloudy
5:35 AM 28.4 °F 18.0 °F 19.4 °F 69% 29.87 in 8.0 mi South 12.7 mph 21.9 mph N/A   Overcast
5:55 AM 28.4 °F 15.8 °F 19.4 °F 69% 29.87 in 5.0 mi SSW 18.4 mph 21.9 mph N/A   Overcast
6:15 AM 26.6 °F 15.2 °F 21.2 °F 80% 29.85 in 2.5 mi South 13.8 mph - N/A   Overcast
6:35 AM 26.6 °F 13.8 °F 23.0 °F 86% 29.85 in 3.0 mi SSW 17.3 mph 23.0 mph N/A   Overcast
6:55 AM 26.6 °F 14.3 °F 23.0 °F 86% 29.85 in 5.0 mi SSW 16.1 mph - N/A   Overcast
7:15 AM 26.6 °F 15.7 °F 24.8 °F 93% 29.84 in 8.0 mi SSW 12.7 mph - N/A   Overcast
7:35 AM 28.4 °F 18.0 °F 21.2 °F 74% 29.84 in 10.0 mi SSW 12.7 mph - N/A   Overcast
7:55 AM 28.4 °F 19.1 °F 23.0 °F 80% 29.84 in 9.0 mi South 10.4 mph - N/A   Overcast
8:15 AM 28.4 °F 17.0 °F 21.2 °F 74% 29.84 in 10.0 mi South 15.0 mph 18.4 mph N/A   Overcast
8:35 AM 30.2 °F 18.5 °F 21.2 °F 69% 29.81 in 10.0 mi South 17.3 mph 20.7 mph N/A   Overcast
8:55 AM 30.2 °F 18.5 °F 21.2 °F 69% 29.81 in 5.0 mi SSW 17.3 mph - N/A   Mostly Cloudy
9:15 AM 30.2 °F 18.5 °F 23.0 °F 75% 29.82 in 10.0 mi SSW 17.3 mph - N/A   Mostly Cloudy
9:35 AM 30.2 °F 19.3 °F 24.8 °F 80% 29.82 in 10.0 mi SSW 15.0 mph - N/A   Overcast
9:55 AM 30.2 °F 20.2 °F 23.0 °F 75% 29.82 in 10.0 mi SSW 12.7 mph 23.0 mph N/A   Overcast
10:15 AM 32.0 °F 20.5 °F 24.8 °F 75% 29.81 in 10.0 mi SSW 18.4 mph 23.0 mph N/A   Overcast
10:35 AM 33.8 °F 23.5 °F 24.8 °F 70% 29.79 in 10.0 mi SSW 16.1 mph - N/A   Mostly Cloudy
10:55 AM 35.6 °F 25.5 °F 24.8 °F 65% 29.78 in 10.0 mi SSW 17.3 mph - N/A   Clear
11:15 AM 35.6 °F 25.9 °F 26.6 °F 70% 29.76 in 10.0 mi SSW 16.1 mph 23.0 mph N/A   Clear
11:35 AM 37.4 °F 27.5 °F 26.6 °F 65% 29.75 in 10.0 mi SSW 18.4 mph 23.0 mph N/A   Partly Cloudy
11:55 AM 37.4 °F 27.5 °F 26.6 °F 65% 29.74 in 10.0 mi SW 18.4 mph - N/A   Mostly Cloudy
12:15 PM 37.4 °F 28.9 °F 26.6 °F 65% 29.73 in 10.0 mi SSW 13.8 mph - N/A   Overcast
12:35 PM 37.4 °F 29.3 °F 26.6 °F 65% 29.73 in 10.0 mi SW 12.7 mph - N/A   Overcast
12:55 PM 39.2 °F 31.2 °F 26.6 °F 61% 29.73 in 10.0 mi SW 13.8 mph - N/A   Overcast
1:15 PM 39.2 °F 30.8 °F 28.4 °F 65% 29.71 in 10.0 mi SW 15.0 mph 19.6 mph N/A   Partly Cloudy
1:35 PM 41.0 °F 33.9 °F 28.4 °F 61% 29.72 in 10.0 mi SW 12.7 mph - N/A   Scattered Clouds
1:55 PM 42.8 °F 37.5 °F 28.4 °F 57% 29.72 in 10.0 mi SW 9.2 mph - N/A   Mostly Cloudy
2:15 PM 42.8 °F 37.0 °F 26.6 °F 53% 29.72 in 10.0 mi SW 10.4 mph - N/A   Overcast
2:35 PM 42.8 °F 36.6 °F 28.4 °F 57% 29.73 in 10.0 mi SW 11.5 mph 16.1 mph N/A   Overcast
2:55 PM 42.8 °F 38.0 °F 28.4 °F 57% 29.73 in 10.0 mi SW 8.1 mph - N/A   Overcast
3:15 PM 42.8 °F 36.6 °F 28.4 °F 57% 29.74 in 10.0 mi WSW 11.5 mph - N/A   Overcast
3:35 PM 44.6 °F 40.2 °F 26.6 °F 49% 29.75 in 10.0 mi West 8.1 mph 17.3 mph N/A   Overcast
3:55 PM 42.8 °F 38.0 °F 28.4 °F 57% 29.75 in 10.0 mi WSW 8.1 mph - N/A   Overcast
4:15 PM 42.8 °F 38.0 °F 28.4 °F 57% 29.75 in 10.0 mi WSW 8.1 mph - N/A   Overcast
4:35 PM 42.8 °F 38.0 °F 28.4 °F 57% 29.76 in 10.0 mi WSW 8.1 mph - N/A   Overcast
4:55 PM 42.8 °F 38.6 °F 28.4 °F 57% 29.77 in 10.0 mi WSW 6.9 mph - N/A   Overcast
5:15 PM 39.2 °F 32.5 °F 30.2 °F 70% 29.81 in 10.0 mi West 10.4 mph 20.7 mph N/A   Overcast
5:35 PM 37.4 °F 31.4 °F 32.0 °F 81% 29.81 in 10.0 mi West 8.1 mph - N/A   Overcast
5:55 PM 37.4 °F 32.1 °F 32.0 °F 81% 29.81 in 10.0 mi West 6.9 mph - N/A   Overcast
6:15 PM 37.4 °F 32.1 °F 30.2 °F 75% 29.82 in 10.0 mi West 6.9 mph - N/A   Mostly Cloudy
6:35 PM 37.4 °F 33.8 °F 33.8 °F 87% 29.81 in 10.0 mi West 4.6 mph - N/A   Mostly Cloudy
6:55 PM 37.4 °F 33.8 °F 32.0 °F 81% 29.82 in 10.0 mi WSW 4.6 mph - N/A   Mostly Cloudy
7:15 PM 37.4 °F 30.8 °F 32.0 °F 81% 29.82 in 10.0 mi WSW 9.2 mph - N/A   Overcast
7:35 PM 37.4 °F 31.4 °F 30.2 °F 75% 29.82 in 10.0 mi WSW 8.1 mph - N/A   Overcast
7:55 PM 37.4 °F 31.4 °F 30.2 °F 75% 29.83 in 10.0 mi WSW 8.1 mph - N/A   Mostly Cloudy
8:15 PM 33.8 °F 29.6 °F 28.4 °F 81% 29.82 in 10.0 mi SW 4.6 mph - N/A   Mostly Cloudy
8:35 PM 33.8 °F 30.8 °F 30.2 °F 87% 29.82 in 10.0 mi SSW 3.5 mph - N/A   Overcast
8:55 PM 33.8 °F 28.6 °F 30.2 °F 87% 29.82 in 10.0 mi SW 5.8 mph - N/A   Overcast
9:15 PM 33.8 °F 28.6 °F 30.2 °F 87% 29.81 in 10.0 mi South 5.8 mph - N/A   Overcast
9:35 PM 35.6 °F 30.7 °F 30.2 °F 81% 29.81 in 10.0 mi SW 5.8 mph - N/A   Overcast
9:55 PM 33.8 °F 29.6 °F 30.2 °F 87% 29.81 in 10.0 mi South 4.6 mph - N/A   Overcast
10:15 PM 33.8 °F 29.6 °F 30.2 °F 87% 29.80 in 10.0 mi South 4.6 mph - N/A   Mostly Cloudy
10:35 PM 33.8 °F 29.6 °F 30.2 °F 87% 29.80 in 10.0 mi SW 4.6 mph - N/A   Overcast
10:55 PM 33.8 °F 27.7 °F 30.2 °F 87% 29.80 in 10.0 mi SSW 6.9 mph - N/A   Overcast
11:15 PM 33.8 °F 28.6 °F 28.4 °F 81% 29.78 in 10.0 mi SW 5.8 mph - N/A   Mostly Cloudy
11:35 PM 35.6 °F 27.1 °F 28.4 °F 75% 29.80 in 9.0 mi West 12.7 mph 27.6 mph N/A   Mostly Cloudy
11:55 PM 35.6 °F 29.9 °F 28.4 °F 75% 29.81 in 10.0 mi West 6.9 mph 20.7 mph N/A   Overcast